• Join FlightAware (Why Join?)
  • Login
  • US Flag 
07:40AM EDT


 

Airport Tracker/Info


-or-


 

Live Flight TrackerFlight Track Log ✈ SWA2624 ✈ 29-Sep-2013 ✈ KAMA - KDAL

Flight Track Log - Related Links

Times and Time Zones

All times are in EDT time to prevent confusion due to time zone crossing. See the SWA2624 flight status page for this flight to view local times or setup timezone preferences in your user account.

Time Position Orientation Groundspeed Altitude Reporting Facility
EDT Latitude Longitude Course Direction KTS MPH feet Rate Location/Type
08:56PM 35.1489 -101.6297 101° East 251 289 7,600  Level Albuquerque Center
08:57PM 35.1103 -101.5394 118° Southeast 286 329 9,800 2,340 Climbing Albuquerque Center
08:58PM 35.0578 -101.4139 117° Southeast 341 392 12,400 2,280 Climbing Albuquerque Center
08:59PM 35.0117 -101.2969 116° Southeast 370 426 14,600 2,340 Climbing Albuquerque Center
09:00PM 35.1226 -101.4941 107° East  Level Estimated
09:00PM 34.9619 -101.1736 116° Southeast 396 456 17,300  Level Albuquerque Center
09:01PM 35.1040 -101.3750 101° East  Level FlightAware Approximate
09:01PM 34.9122 -101.0503 116° Southeast 403 464 20,000  Level Albuquerque Center
09:02PM 34.8614 -100.9261 116° Southeast 407 468 22,100 1,980 Climbing Albuquerque Center
09:03PM 34.8108 -100.8000 116° Southeast 412 474 24,100 1,920 Climbing Albuquerque Center
09:04PM 34.7581 -100.6714 117° Southeast 418 481 26,100 1,740 Climbing Albuquerque Center
09:05PM 34.6939 -100.5153 117° Southeast 425 489 27,700 1,320 Climbing Albuquerque Center
09:06PM 34.6383 -100.3789 116° Southeast 438 504 28,900 1,140 Climbing Albuquerque Center
09:07PM 34.5808 -100.2403 117° Southeast 451 519 30,100 1,200 Climbing Albuquerque Center
09:08PM 34.5211 -100.1003 117° Southeast 465 535 31,400 1,380 Climbing Albuquerque Center
09:09PM 34.4864 -100.0161 117° Southeast 454 522 32,400 960 Climbing Fort Worth Center
09:10PM 34.4286 -99.8758 117° Southeast 454 522 33,000 300 Climbing Fort Worth Center
09:11PM 34.3647 -99.7281 118° Southeast 470 541 33,000  Level Fort Worth Center
09:12PM 34.3006 -99.5756 117° Southeast 475 547 33,000  Level Fort Worth Center
09:13PM 34.2364 -99.4308 118° Southeast 481 554 33,000  Level Fort Worth Center
09:14PM 34.1739 -99.2811 117° Southeast 481 554 33,000  Level Fort Worth Center
09:15PM 34.1133 -99.1369 117° Southeast 476 548 33,000  Level Fort Worth Center
09:16PM 34.0528 -98.9928 117° Southeast 482 555 33,000  Level Fort Worth Center
09:17PM 33.9917 -98.8539 118° Southeast 476 548 33,000  Level Fort Worth Center
09:18PM 33.9286 -98.7103 118° Southeast 476 548 33,000 -300 Level Fort Worth Center
09:19PM 33.8653 -98.5667 118° Southeast 482 555 32,500 -1,200 Descending Fort Worth Center
09:20PM 33.7933 -98.4383 124° Southeast 477 549 30,600 -2,520 Descending Fort Worth Center
09:21PM 33.7214 -98.3125 124° Southeast 466 536 27,500 -3,120 Descending Fort Worth Center
09:22PM 33.6533 -98.1844 123° Southeast 456 525 24,400 -2,880 Descending Fort Worth Center
09:23PM 33.5914 -98.0767 125° Southeast 445 512 21,800 -2,700 Descending Fort Worth Center
09:24PM 33.5169 -97.9492 125° Southeast 435 501 19,100 -2,520 Descending Fort Worth Center
09:25PM 33.4631 -97.8517 124° Southeast 411 473 16,800 -2,340 Descending Fort Worth Center
09:26PM 33.3967 -97.7319 124° Southeast 398 458 14,500 -2,100 Descending Fort Worth Center
09:27PM 33.3425 -97.6347 124° Southeast 393 452 12,600 -1,800 Descending Fort Worth Center
09:28PM 33.2842 -97.5328 124° Southeast 382 440 11,000 -900 Descending Fort Worth Center
09:29PM 33.2167 -97.4500 134° Southeast 369 425 11,000  Level Dallas / Fort Worth TRACON
09:30PM 33.1500 -97.3667 134° Southeast 350 403 11,000  Level Dallas / Fort Worth TRACON
09:31PM 33.0833 -97.2833 134° Southeast 318 366 11,000  Level Dallas / Fort Worth TRACON
09:32PM 33.0167 -97.2167 140° Southeast 304 350 11,000 -120 Level Dallas / Fort Worth TRACON
09:33PM 32.9667 -97.1500 132° Southeast 269 310 10,800 -1,200 Descending Dallas / Fort Worth TRACON
09:34PM 32.9167 -97.0833 132° Southeast 281 323 8,700 -1,980 Descending Dallas / Fort Worth TRACON
09:35PM 32.8667 -97.0167 132° Southeast 244 281 6,900 -2,100 Descending Dallas / Fort Worth TRACON
09:36PM 32.8167 -96.9500 132° Southeast 237 273 4,400 -1,440 Descending Dallas / Fort Worth TRACON
09:37PM 32.7667 -96.9167 151° Southeast 193 222 3,900 -720 Descending Dallas / Fort Worth TRACON
09:38PM 32.7333 -96.8667 128° Southeast 187 215 3,000 -480 Descending Dallas / Fort Worth TRACON
09:39PM 32.7000 -96.8333 140° Southeast 193 222 3,000 -120 Level Dallas / Fort Worth TRACON
09:40PM 32.7000 -96.7667 90° East 196 226 2,800 -480 Descending Dallas / Fort Worth TRACON
09:41PM 32.7500 -96.7500 16° North 175 201 2,100 -480 Descending Dallas / Fort Worth TRACON
09:42PM 32.7833 -96.7833 320° Northwest 148 170 1,900 -480 Descending Dallas / Fort Worth TRACON
09:43PM 32.8167 -96.8167 320° Northwest 126 145 1,100 -300 Descending Dallas / Fort Worth TRACON
09:44PM 32.8500 -96.8500 320° Northwest 182 209 1,300 600 Climbing Dallas / Fort Worth TRACON
09:46PM 32.9333 -96.8833 341° North 211 243 3,000 600 Climbing Dallas / Fort Worth TRACON
09:47PM 32.9500 -96.8167 73° East 215 247 3,000  Level Dallas / Fort Worth TRACON
09:48PM 32.9333 -96.7667 112° Southeast 231 266 3,000  Level Dallas / Fort Worth TRACON
09:49PM 32.8833 -96.7000 132° Southeast 194 223 3,000 -420 Level Dallas / Fort Worth TRACON
09:50PM 32.8500 -96.6833 157° South 183 211 2,200 -480 Descending Dallas / Fort Worth TRACON
09:51PM 32.8167 -96.7333 232° Southwest 164 189 2,100 -360 Descending Dallas / Fort Worth TRACON
09:52PM 32.8167 -96.7833 270° West 130 150 1,600 -600 Descending Dallas / Fort Worth TRACON
09:53PM 32.8167 -96.8167 270° West 136 157 1,000 -660 Descending Dallas / Fort Worth TRACON